Time;durP1;ratioP1;P1;durP2;ratioP2;P2;SDS_P1;SDS_P2;PMS_P1;PMS_P2;Temp;Humidity;BMP_temperature;BMP_pressure;BME280_temperature;BME280_humidity;BME280_pressure;Samples;Min_cycle;Max_cycle;Signal;HPM_P1;HPM_P2
2022/05/08 00:00:44;;;;;;;;;;;;;;;20.06;43.61;101571.77;105418;1298;62089;-83
2022/05/08 00:03:21;;;;;;;;;;;;;;;20.06;43.69;101564.82;105396;1298;72882;-84
2022/05/08 00:05:55;;;;;;;;;;;;;;;20.06;43.62;101566.98;105427;1298;75553;-86
2022/05/08 00:08:41;;;;;;;;;;;;;;;20.06;43.81;101565.72;105426;1299;62013;-84
2022/05/08 00:11:21;;;;;;;;;;;;;;;20.06;43.69;101565.35;105416;1297;60603;-86
2022/05/08 00:14:01;;;;;;;;;;;;;;;20.05;43.60;101562.17;105478;1296;73761;-82
2022/05/08 00:16:50;;;;;;;;;;;;;;;20.06;43.59;101556.09;105472;1297;75652;-82
2022/05/08 00:19:33;;;;;;;;;;;;;;;20.05;43.68;101561.30;105421;1297;62080;-84
2022/05/08 00:22:07;;;;;;;;;;;;;;;20.05;43.56;101562.00;105515;1297;61970;-85
2022/05/08 00:24:55;;;;;;;;;;;;;;;20.05;43.68;101563.79;105462;1296;73221;-82
2022/05/08 00:27:39;;;;;;;;;;;;;;;20.05;43.66;101558.27;105482;1296;76444;-84
2022/05/08 00:30:08;;;;;;;;;;;;;;;20.05;43.77;101563.63;105364;1297;62094;-81
2022/05/08 00:32:43;;;;;;;;;;;;;;;20.05;43.54;101563.27;105476;1296;62081;-84
2022/05/08 00:35:29;;;;;;;;;;;;;;;20.05;43.80;101561.66;105473;1296;72600;-81
2022/05/08 00:38:06;;;;;;;;;;;;;;;20.05;43.56;101562.02;105463;1295;75854;-79
2022/05/08 00:40:39;;;;;;;;;;;;;;;20.05;43.77;101561.48;105387;1297;62135;-86
2022/05/08 00:43:33;;;;;;;;;;;;;;;20.05;43.68;101560.61;105502;1296;62057;-81
2022/05/08 00:46:20;;;;;;;;;;;;;;;20.05;43.77;101561.86;105493;1296;72739;-85
2022/05/08 00:48:48;;;;;;;;;;;;;;;20.04;43.64;101559.73;105478;1296;76428;-88
2022/05/08 00:51:34;;;;;;;;;;;;;;;20.05;43.47;101559.90;105423;1297;61976;-85
2022/05/08 00:54:09;;;;;;;;;;;;;;;20.04;43.90;101560.29;105482;1296;61841;-86
2022/05/08 00:56:55;;;;;;;;;;;;;;;20.04;43.74;101556.54;105302;1298;72664;-79
2022/05/08 00:59:23;;;;;;;;;;;;;;;20.04;43.75;101559.95;105515;1296;75495;-85
2022/05/08 01:02:03;;;;;;;;;;;;;;;20.04;43.69;101558.34;105484;1297;61911;-84
2022/05/08 01:04:41;;;;;;;;;;;;;;;20.03;43.72;101557.30;105494;1296;61976;-83
2022/05/08 01:07:35;;;;;;;;;;;;;;;20.03;43.75;101555.49;105287;1296;72920;-83
2022/05/08 01:10:01;;;;;;;;;;;;;;;20.03;43.75;101556.73;104862;1303;76869;-81
2022/05/08 01:13:21;;;;;;;;;;;;;;;20.03;43.64;101555.67;104889;1303;61981;-85
2022/05/08 01:15:33;;;;;;;;;;;;;;;20.03;43.73;101559.45;104785;1303;62165;-82
2022/05/08 01:18:25;;;;;;;;;;;;;;;20.03;43.67;101558.89;104814;1303;73972;-83
2022/05/08 01:20:59;;;;;;;;;;;;;;;20.03;43.63;101557.14;104398;1311;75496;-89
2022/05/08 01:23:49;;;;;;;;;;;;;;;20.03;43.78;101560.32;104390;1311;62299;-83
2022/05/08 01:26:21;;;;;;;;;;;;;;;20.03;43.70;101557.86;104417;1311;62158;-84
2022/05/08 01:29:08;;;;;;;;;;;;;;;20.03;43.68;101561.44;104338;1311;73897;-83
2022/05/08 01:31:48;;;;;;;;;;;;;;;20.02;43.67;101559.14;104348;1311;76103;-85
2022/05/08 01:34:43;;;;;;;;;;;;;;;20.03;43.49;101562.52;104407;1311;62252;-84
2022/05/08 01:37:29;;;;;;;;;;;;;;;20.02;43.66;101559.14;104391;1311;62084;-86
2022/05/08 01:40:05;;;;;;;;;;;;;;;20.02;43.49;101558.26;104402;1311;72165;-83
2022/05/08 01:43:18;;;;;;;;;;;;;;;20.02;43.61;101561.11;104394;1311;77446;-83
2022/05/08 01:46:16;;;;;;;;;;;;;;;20.02;43.71;101557.71;104073;1316;62069;-86
2022/05/08 01:49:13;;;;;;;;;;;;;;;20.02;43.66;101562.35;103599;1319;62023;-82
2022/05/08 01:51:42;;;;;;;;;;;;;;;20.02;43.72;101558.61;103562;1319;71814;-88
2022/05/08 01:54:28;;;;;;;;;;;;;;;20.02;43.69;101556.15;103369;1319;76698;-83
2022/05/08 01:56:58;;;;;;;;;;;;;;;20.02;43.67;101556.13;103300;1322;62213;-84
2022/05/08 01:59:43;;;;;;;;;;;;;;;;;;;;;
2022/05/08 02:02:23;;;;;;;;;;;;;;;;;;;;;
2022/05/08 02:05:09;;;;;;;;;;;;;;;20.01;43.74;101554.37;104324;1313;75646;-83
2022/05/08 02:07:46;;;;;;;;;;;;;;;20.01;43.59;101557.42;104353;1313;61945;-82
2022/05/08 02:10:49;;;;;;;;;;;;;;;20.01;43.76;101555.98;104306;1313;61897;-82
2022/05/08 02:13:27;;;;;;;;;;;;;;;20.01;43.68;101555.45;104375;1311;73950;-82
2022/05/08 02:16:02;;;;;;;;;;;;;;;20.01;43.63;101559.94;104413;1310;77249;-82
2022/05/08 02:18:27;;;;;;;;;;;;;;;20.00;43.73;101559.98;104336;1311;62124;-87
2022/05/08 02:21:02;;;;;;;;;;;;;;;20.00;43.72;101563.02;104365;1311;62062;-86
2022/05/08 02:23:53;;;;;;;;;;;;;;;20.00;43.87;101566.58;104581;1305;62113;-85
2022/05/08 02:26:31;;;;;;;;;;;;;;;20.00;43.68;101570.16;105007;1299;75736;-83
2022/05/08 02:29:15;;;;;;;;;;;;;;;20.00;43.57;101569.27;105388;1298;61980;-85
2022/05/08 02:35:06;;;;;;;;;;;;;;;;;;;;;
2022/05/08 02:37:35;;;;;;;;;;;;;;;19.99;43.75;101581.09;104287;1313;75595;-85
2022/05/08 02:40:24;;;;;;;;;;;;;;;19.99;43.64;101580.73;104144;1316;61977;-83
2022/05/08 02:43:21;;;;;;;;;;;;;;;19.99;43.76;101577.91;104060;1317;62326;-82
2022/05/08 02:46:00;;;;;;;;;;;;;;;19.99;43.70;101578.98;104055;1316;72803;-83
2022/05/08 02:48:38;;;;;;;;;;;;;;;19.99;43.84;101576.48;104128;1316;76474;-82
2022/05/08 02:51:20;;;;;;;;;;;;;;;19.99;43.72;101573.63;104061;1316;62010;-84
2022/05/08 02:53:58;;;;;;;;;;;;;;;19.98;43.65;101574.52;104154;1316;62007;-82
2022/05/08 02:59:42;;;;;;;;;;;;;;;;;;;;;
2022/05/08 03:02:38;;;;;;;;;;;;;;;19.98;43.85;101576.88;104173;1316;62033;-88
2022/05/08 03:05:15;;;;;;;;;;;;;;;19.98;43.59;101577.05;103847;1317;62026;-85
2022/05/08 03:07:54;;;;;;;;;;;;;;;19.98;43.74;101574.38;103835;1317;73229;-82
2022/05/08 03:11:25;;;;;;;;;;;;;;;19.98;43.63;101579.74;104131;1316;76806;-83
2022/05/08 03:13:28;;;;;;;;;;;;;;;;;;;;;
2022/05/08 03:16:03;;;;;;;;;;;;;;;19.98;43.76;101584.21;104905;1305;62177;-81
2022/05/08 03:18:44;;;;;;;;;;;;;;;19.97;43.73;101581.55;105191;1297;71684;-86
2022/05/08 03:21:51;;;;;;;;;;;;;;;19.98;43.66;101584.42;105306;1299;73809;-88
2022/05/08 03:24:20;;;;;;;;;;;;;;;19.98;43.86;101584.40;105345;1298;61931;-83
2022/05/08 03:27:00;;;;;;;;;;;;;;;19.98;43.76;101589.58;105384;1298;62104;-88
2022/05/08 03:29:44;;;;;;;;;;;;;;;19.98;43.76;101588.69;105287;1299;73734;-80
2022/05/08 03:32:28;;;;;;;;;;;;;;;19.97;43.71;101590.84;105266;1299;76556;-86
2022/05/08 03:35:04;;;;;;;;;;;;;;;19.98;43.63;101591.54;105390;1299;61922;-85
2022/05/08 03:37:44;;;;;;;;;;;;;;;19.98;43.77;101591.02;105235;1300;62173;-84
2022/05/08 03:40:32;;;;;;;;;;;;;;;19.97;43.80;101592.82;105416;1299;72779;-82
2022/05/08 03:43:17;;;;;;;;;;;;;;;19.98;43.77;101599.23;105416;1299;77015;-81
2022/05/08 03:45:48;;;;;;;;;;;;;;;19.98;43.87;101600.49;105455;1299;62174;-84
2022/05/08 03:48:23;;;;;;;;;;;;;;;19.98;43.79;101596.55;105391;1298;61993;-82
2022/05/08 03:51:18;;;;;;;;;;;;;;;19.98;43.86;101594.05;105409;1299;72695;-88
2022/05/08 03:53:58;;;;;;;;;;;;;;;19.98;43.85;101591.55;105384;1297;75630;-84
2022/05/08 03:56:33;;;;;;;;;;;;;;;;;;;;;
2022/05/08 03:59:09;;;;;;;;;;;;;;;19.98;43.72;101594.40;105362;1299;62120;-84
2022/05/08 04:02:24;;;;;;;;;;;;;;;19.98;43.53;101596.35;105423;1300;71493;-82
2022/05/08 04:04:57;;;;;;;;;;;;;;;19.99;43.54;101594.37;104912;1303;75418;-85
2022/05/08 04:07:25;;;;;;;;;;;;;;;19.99;43.61;101598.13;104935;1303;62090;-86
2022/05/08 04:10:14;;;;;;;;;;;;;;;19.98;43.72;101597.42;104936;1303;60680;-82
2022/05/08 04:12:42;;;;;;;;;;;;;;;19.99;43.83;101599.02;104873;1304;73875;-82
2022/05/08 04:18:00;;;;;;;;;;;;;;;19.99;43.57;101604.53;104902;1303;62043;-86
2022/05/08 04:20:55;;;;;;;;;;;;;;;19.98;43.50;101602.95;104913;1303;61930;-86
2022/05/08 04:26:46;;;;;;;;;;;;;;;19.99;43.83;101609.20;104917;1303;76627;-83
2022/05/08 04:29:40;;;;;;;;;;;;;;;19.99;43.76;101609.02;104916;1303;62117;-84
2022/05/08 04:32:45;;;;;;;;;;;;;;;19.99;43.75;101611.69;104909;1305;59441;-82
2022/05/08 04:35:45;;;;;;;;;;;;;;;19.99;43.73;101615.98;104899;1303;73756;-87
2022/05/08 04:38:30;;;;;;;;;;;;;;;19.99;43.75;101619.91;104429;1311;76159;-83
2022/05/08 04:41:09;;;;;;;;;;;;;;;19.99;43.64;101621.15;104408;1306;62211;-83
2022/05/08 04:44:00;;;;;;;;;;;;;;;19.98;43.55;101621.18;104709;1305;62284;-84
2022/05/08 04:46:33;;;;;;;;;;;;;;;19.99;43.55;101626.68;104829;1305;73854;-84
2022/05/08 04:49:17;;;;;;;;;;;;;;;19.99;43.57;101621.88;104819;1305;75572;-84
2022/05/08 04:52:00;;;;;;;;;;;;;;;19.99;43.79;101623.50;104823;1305;62189;-84
2022/05/08 04:55:03;;;;;;;;;;;;;;;19.99;43.62;101626.17;104823;1305;62005;-82
2022/05/08 04:57:38;;;;;;;;;;;;;;;19.99;43.90;101626.54;104800;1305;73712;-83
2022/05/08 05:00:13;;;;;;;;;;;;;;;19.99;43.63;101628.65;104822;1304;76960;-85
2022/05/08 05:02:48;;;;;;;;;;;;;;;19.99;43.48;101627.06;104771;1305;61893;-81
2022/05/08 05:05:32;;;;;;;;;;;;;;;;;;;;;
2022/05/08 05:08:06;;;;;;;;;;;;;;;19.98;43.68;101622.61;104778;1305;73218;-85
2022/05/08 05:11:11;;;;;;;;;;;;;;;19.98;43.67;101622.79;104515;1310;76053;-86
2022/05/08 05:13:38;;;;;;;;;;;;;;;19.99;43.72;101624.92;104556;1310;61943;-83
2022/05/08 05:16:17;;;;;;;;;;;;;;;19.98;43.67;101628.33;104847;1302;62330;-84
2022/05/08 05:18:54;;;;;;;;;;;;;;;19.99;43.73;101626.36;105167;1300;73343;-82
2022/05/08 05:22:01;;;;;;;;;;;;;;;19.99;43.76;101631.35;105239;1300;76045;-83
2022/05/08 05:24:38;;;;;;;;;;;;;;;;;;;;;
2022/05/08 05:27:16;;;;;;;;;;;;;;;19.99;43.69;101634.74;105160;1301;62116;-86
2022/05/08 05:30:02;;;;;;;;;;;;;;;19.99;43.97;101632.39;105218;1300;73706;-84
2022/05/08 05:32:45;;;;;;;;;;;;;;;19.99;43.84;101633.13;105127;1301;76572;-83
2022/05/08 05:35:27;;;;;;;;;;;;;;;;;;;;;
2022/05/08 05:38:18;;;;;;;;;;;;;;;;;;;;;
2022/05/08 05:40:50;;;;;;;;;;;;;;;19.99;43.76;101633.27;104904;1303;73725;-83
2022/05/08 05:43:25;;;;;;;;;;;;;;;20.00;43.73;101633.06;105139;1301;74934;-86
2022/05/08 05:48:56;;;;;;;;;;;;;;;20.00;43.74;101633.95;105351;1297;61981;-84
2022/05/08 05:51:34;;;;;;;;;;;;;;;20.00;43.79;101631.09;105385;1297;73684;-86
2022/05/08 05:54:37;;;;;;;;;;;;;;;20.00;43.89;101631.79;105520;1297;75624;-81
2022/05/08 05:57:22;;;;;;;;;;;;;;;20.00;43.64;101627.34;104966;1303;62213;-84
2022/05/08 06:00:06;;;;;;;;;;;;;;;20.00;43.79;101630.54;104877;1303;62104;-82
2022/05/08 06:03:12;;;;;;;;;;;;;;;20.00;43.75;101628.21;104902;1303;74318;-84
2022/05/08 06:05:46;;;;;;;;;;;;;;;20.01;43.78;101627.81;104896;1303;75707;-81
2022/05/08 06:08:35;;;;;;;;;;;;;;;20.01;43.77;101626.04;104857;1303;62015;-85
2022/05/08 06:11:24;;;;;;;;;;;;;;;;;;;;;
2022/05/08 06:14:02;;;;;;;;;;;;;;;20.01;43.92;101629.06;104319;1311;72831;-81
2022/05/08 06:17:01;;;;;;;;;;;;;;;;;;;;;
2022/05/08 06:19:38;;;;;;;;;;;;;;;;;;;;;
2022/05/08 06:22:30;;;;;;;;;;;;;;;20.02;43.97;101623.65;104430;1311;62137;-84
2022/05/08 06:25:42;;;;;;;;;;;;;;;20.02;43.89;101624.70;104400;1311;71520;-82
2022/05/08 06:28:37;;;;;;;;;;;;;;;20.03;43.94;101623.23;103898;1317;76687;-83
2022/05/08 06:31:25;;;;;;;;;;;;;;;;;;;;;
2022/05/08 06:34:00;;;;;;;;;;;;;;;20.04;43.87;101628.38;103999;1314;62146;-85
2022/05/08 06:36:38;;;;;;;;;;;;;;;20.05;43.94;101626.55;104300;1313;73993;-83
2022/05/08 06:39:26;;;;;;;;;;;;;;;20.05;43.88;101624.41;104384;1313;75590;-83
2022/05/08 06:42:07;;;;;;;;;;;;;;;20.05;43.98;101624.02;104376;1310;62200;-86
2022/05/08 06:44:40;;;;;;;;;;;;;;;20.06;43.97;101624.17;104387;1313;62258;-85
2022/05/08 06:47:28;;;;;;;;;;;;;;;20.06;44.08;101620.41;104375;1313;72868;-83
2022/05/08 06:49:59;;;;;;;;;;;;;;;20.06;44.07;101625.39;104749;1305;75497;-88
2022/05/08 06:52:45;;;;;;;;;;;;;;;20.07;44.00;101622.69;104752;1305;62113;-87
2022/05/08 06:55:20;;;;;;;;;;;;;;;20.07;44.12;101621.06;104155;1304;62258;-84
2022/05/08 06:58:06;;;;;;;;;;;;;;;20.08;44.09;101623.35;104738;1305;73812;-83
2022/05/08 07:03:58;;;;;;;;;;;;;;;20.08;44.19;101619.03;104450;1309;61936;-83
2022/05/08 07:06:33;;;;;;;;;;;;;;;20.08;44.14;101617.79;105283;1299;61957;-85
2022/05/08 07:09:18;;;;;;;;;;;;;;;20.08;43.92;101616.33;105365;1300;72765;-83
2022/05/08 07:11:53;;;;;;;;;;;;;;;20.09;43.86;101618.83;105472;1297;76484;-83
2022/05/08 07:14:26;;;;;;;;;;;;;;;20.09;44.11;101627.20;105389;1297;62041;-84
2022/05/08 07:17:15;;;;;;;;;;;;;;;20.09;43.90;101625.59;105487;1297;61948;-87
2022/05/08 07:19:46;;;;;;;;;;;;;;;20.09;44.20;101628.27;105442;1297;72933;-84
2022/05/08 07:22:23;;;;;;;;;;;;;;;20.09;44.00;101627.02;105324;1299;75512;-87
2022/05/08 07:25:11;;;;;;;;;;;;;;;20.09;44.02;101635.75;105476;1297;61957;-83
2022/05/08 07:27:48;;;;;;;;;;;;;;;20.10;44.19;101633.94;105458;1297;62087;-85
2022/05/08 07:30:22;;;;;;;;;;;;;;;20.10;44.07;101631.79;105443;1297;72788;-84
2022/05/08 07:33:01;;;;;;;;;;;;;;;20.10;44.01;101631.95;105307;1299;76443;-83
2022/05/08 07:38:50;;;;;;;;;;;;;;;20.10;44.22;101628.91;105416;1297;61989;-83
2022/05/08 07:41:27;;;;;;;;;;;;;;;20.10;44.25;101631.40;105217;1297;73778;-82
2022/05/08 07:44:09;;;;;;;;;;;;;;;20.10;44.24;101629.80;105395;1297;75586;-81
2022/05/08 07:47:03;;;;;;;;;;;;;;;20.10;44.27;101631.41;105241;1300;62882;-81
2022/05/08 07:49:31;;;;;;;;;;;;;;;20.10;44.13;101636.23;105218;1300;61948;-79
2022/05/08 07:52:20;;;;;;;;;;;;;;;20.11;44.28;101640.48;105187;1301;71640;-82
2022/05/08 07:54:59;;;;;;;;;;;;;;;20.12;44.18;101639.23;105191;1300;75596;-82
2022/05/08 07:57:45;;;;;;;;;;;;;;;20.11;44.28;101637.63;105168;1302;62089;-85
2022/05/08 08:00:32;;;;;;;;;;;;;;;20.12;44.33;101637.42;104554;1310;61959;-84
2022/05/08 08:03:17;;;;;;;;;;;;;;;20.12;44.34;101641.71;104516;1307;71658;-84
2022/05/08 08:05:51;;;;;;;;;;;;;;;20.13;44.30;101642.77;104497;1308;77010;-82
2022/05/08 08:08:28;;;;;;;;;;;;;;;20.13;44.28;101642.58;104588;1307;62032;-83
2022/05/08 08:11:13;;;;;;;;;;;;;;;;;;;;;
2022/05/08 08:13:54;;;;;;;;;;;;;;;20.14;44.32;101648.96;104555;1307;72696;-83
2022/05/08 08:16:52;;;;;;;;;;;;;;;20.14;44.32;101648.92;104626;1306;74712;-83
2022/05/08 08:19:30;;;;;;;;;;;;;;;20.14;44.31;101655.19;104919;1303;59450;-83
2022/05/08 08:22:11;;;;;;;;;;;;;;;20.15;44.29;101653.56;104852;1303;61963;-87
2022/05/08 08:24:48;;;;;;;;;;;;;;;20.15;44.22;101647.09;104917;1303;72705;-84
2022/05/08 08:27:19;;;;;;;;;;;;;;;20.15;44.18;101646.05;104865;1303;75619;-83
2022/05/08 08:30:14;;;;;;;;;;;;;;;20.15;44.22;101644.57;104908;1303;61935;-82
2022/05/08 08:33:08;;;;;;;;;;;;;;;20.16;44.32;101637.22;104961;1303;62392;-84
2022/05/08 08:35:48;;;;;;;;;;;;;;;;;;;;;
2022/05/08 08:38:23;;;;;;;;;;;;;;;20.16;44.34;101638.26;104901;1303;76476;-81
2022/05/08 08:41:09;;;;;;;;;;;;;;;20.17;44.30;101640.73;104931;1303;61969;-82
2022/05/08 08:49:38;;;;;;;;;;;;;;;20.18;44.21;101637.29;104904;1303;75663;-85
2022/05/08 08:52:44;;;;;;;;;;;;;;;;;;;;;
2022/05/08 08:55:14;;;;;;;;;;;;;;;20.19;44.28;101640.46;104933;1303;61957;-84
2022/05/08 08:58:00;;;;;;;;;;;;;;;20.18;44.14;101634.21;104893;1303;72829;-82
2022/05/08 09:00:36;;;;;;;;;;;;;;;20.19;44.30;101635.42;104917;1303;74990;-82
2022/05/08 09:03:14;;;;;;;;;;;;;;;;;;;;;
2022/05/08 09:05:50;;;;;;;;;;;;;;;20.19;44.09;101635.23;104870;1304;61974;-83
2022/05/08 09:08:37;;;;;;;;;;;;;;;;;;;;;
2022/05/08 09:11:40;;;;;;;;;;;;;;;20.20;44.40;101628.06;104908;1303;75541;-84
2022/05/08 09:14:14;;;;;;;;;;;;;;;20.20;44.39;101625.38;104840;1303;62275;-84
2022/05/08 09:17:07;;;;;;;;;;;;;;;20.20;44.29;101621.77;104852;1303;62193;-87
2022/05/08 09:19:49;;;;;;;;;;;;;;;20.21;44.21;101620.33;104863;1303;72713;-83
2022/05/08 09:22:28;;;;;;;;;;;;;;;20.21;44.22;101616.73;104902;1303;75478;-83
2022/05/08 09:25:07;;;;;;;;;;;;;;;20.21;44.35;101607.63;104940;1303;62129;-83
2022/05/08 09:27:59;;;;;;;;;;;;;;;20.21;44.27;101607.45;104922;1303;61988;-82
2022/05/08 09:30:37;;;;;;;;;;;;;;;20.21;44.29;101608.00;104926;1303;73837;-80
2022/05/08 09:33:24;;;;;;;;;;;;;;;20.20;44.05;101607.48;104903;1303;75629;-82
2022/05/08 09:36:05;;;;;;;;;;;;;;;;;;;;;
2022/05/08 09:38:47;;;;;;;;;;;;;;;20.21;44.23;101612.29;104896;1303;62056;-84
2022/05/08 09:41:43;;;;;;;;;;;;;;;20.21;44.20;101603.89;104743;1305;72792;-84
2022/05/08 09:44:26;;;;;;;;;;;;;;;20.21;44.29;101602.80;104752;1305;75636;-83
2022/05/08 09:47:05;;;;;;;;;;;;;;;20.21;44.28;101605.83;104906;1305;62059;-81
2022/05/08 09:49:54;;;;;;;;;;;;;;;20.21;44.28;101603.34;104780;1306;62050;-84
2022/05/08 09:52:34;;;;;;;;;;;;;;;20.21;44.14;101605.46;104922;1305;73902;-82
2022/05/08 09:55:20;;;;;;;;;;;;;;;20.22;44.27;101606.15;104895;1305;76271;-82
2022/05/08 09:57:46;;;;;;;;;;;;;;;20.21;44.21;101598.86;104820;1305;62040;-79
2022/05/08 10:00:31;;;;;;;;;;;;;;;20.21;44.10;101600.45;104775;1305;61960;-82
2022/05/08 10:03:05;;;;;;;;;;;;;;;20.21;44.15;101592.23;104621;1305;62004;-83
2022/05/08 10:05:34;;;;;;;;;;;;;;;20.21;44.32;101593.65;104771;1306;76675;-82
2022/05/08 10:08:10;;;;;;;;;;;;;;;20.23;44.13;101592.34;104903;1304;62531;-86
2022/05/08 10:14:27;;;;;;;;;;;;;;;20.22;44.17;101591.28;104330;1313;70540;-84
2022/05/08 10:16:58;;;;;;;;;;;;;;;20.22;44.25;101587.35;104351;1313;76510;-83
2022/05/08 10:19:45;;;;;;;;;;;;;;;;;;;;;
2022/05/08 10:22:21;;;;;;;;;;;;;;;20.22;44.20;101582.35;104280;1311;62041;-83
2022/05/08 10:25:10;;;;;;;;;;;;;;;20.22;44.25;101577.51;104187;1313;73991;-81
2022/05/08 10:27:35;;;;;;;;;;;;;;;20.23;44.11;101581.05;104861;1313;74925;-82
2022/05/08 10:30:07;;;;;;;;;;;;;;;20.23;44.23;101580.66;104100;1313;62206;-81
2022/05/08 10:32:35;;;;;;;;;;;;;;;20.24;44.30;101579.75;104169;1313;62049;-81
2022/05/08 10:35:21;;;;;;;;;;;;;;;20.24;44.32;101576.89;104226;1313;72901;-87
2022/05/08 10:38:12;;;;;;;;;;;;;;;20.25;44.19;101574.69;104289;1313;75812;-81
2022/05/08 10:40:49;;;;;;;;;;;;;;;20.25;44.38;101574.69;104202;1313;61952;-81
2022/05/08 10:43:18;;;;;;;;;;;;;;;20.25;44.21;101573.25;104158;1313;61867;-81
2022/05/08 10:45:51;;;;;;;;;;;;;;;20.25;44.09;101568.22;104137;1313;73861;-83
2022/05/08 10:48:25;;;;;;;;;;;;;;;20.26;43.99;101564.98;104193;1313;62074;-83
2022/05/08 10:50:54;;;;;;;;;;;;;;;20.26;44.27;101564.61;104211;1308;62179;-82
2022/05/08 10:53:28;;;;;;;;;;;;;;;20.26;44.24;101558.89;104784;1305;61955;-82
2022/05/08 10:56:06;;;;;;;;;;;;;;;20.27;44.10;101557.62;105104;1298;74108;-82
2022/05/08 10:58:47;;;;;;;;;;;;;;;20.26;44.23;101554.58;105234;1299;76075;-82
2022/05/08 11:01:21;;;;;;;;;;;;;;;20.26;44.17;101551.02;105016;1299;61975;-83
2022/05/08 11:03:49;;;;;;;;;;;;;;;20.26;44.21;101548.70;105061;1299;62059;-81
2022/05/08 11:06:19;;;;;;;;;;;;;;;20.26;44.28;101544.75;105114;1299;73711;-81
2022/05/08 11:08:50;;;;;;;;;;;;;;;20.26;44.26;101536.88;105054;1299;76847;-81
2022/05/08 11:11:26;;;;;;;;;;;;;;;20.26;44.10;101533.50;105028;1299;62114;-81
2022/05/08 11:13:59;;;;;;;;;;;;;;;20.26;44.14;101534.40;105234;1299;62107;-81
2022/05/08 11:16:44;;;;;;;;;;;;;;;20.27;44.13;101533.83;105119;1299;72775;-82
2022/05/08 11:19:13;;;;;;;;;;;;;;;20.27;44.18;101531.15;105344;1299;76495;-88
2022/05/08 11:22:03;;;;;;;;;;;;;;;;;;;;;
2022/05/08 11:24:51;;;;;;;;;;;;;;;20.26;44.05;101526.89;105300;1299;62219;-88
2022/05/08 11:27:28;;;;;;;;;;;;;;;20.26;44.17;101524.75;105395;1299;73212;-82
2022/05/08 11:30:14;;;;;;;;;;;;;;;20.26;44.10;101519.55;105301;1298;75590;-81
2022/05/08 11:36:20;;;;;;;;;;;;;;;20.26;44.00;101515.65;105074;1299;62086;-83
2022/05/08 11:39:09;;;;;;;;;;;;;;;20.26;44.14;101514.21;105355;1299;72682;-81
2022/05/08 11:42:09;;;;;;;;;;;;;;;20.26;44.00;101512.59;105239;1299;75910;-84
2022/05/08 11:44:48;;;;;;;;;;;;;;;20.26;43.94;101514.55;105371;1298;61986;-85
2022/05/08 11:47:25;;;;;;;;;;;;;;;20.26;44.19;101509.73;105307;1299;61997;-83
2022/05/08 11:49:51;;;;;;;;;;;;;;;20.27;43.91;101508.64;105289;1297;73301;-85
2022/05/08 11:52:46;;;;;;;;;;;;;;;20.27;44.03;101505.40;105189;1299;74320;-82
2022/05/08 11:55:15;;;;;;;;;;;;;;;20.27;43.98;101502.20;105312;1298;61947;-81
2022/05/08 11:57:53;;;;;;;;;;;;;;;20.27;44.00;101499.69;105388;1298;61973;-82
2022/05/08 12:00:45;;;;;;;;;;;;;;;20.27;43.86;101496.83;105328;1298;73917;-82
2022/05/08 12:03:31;;;;;;;;;;;;;;;20.26;43.96;101489.50;105341;1299;76706;-84
2022/05/08 12:06:12;;;;;;;;;;;;;;;20.27;43.82;101486.28;105186;1299;61960;-85
2022/05/08 12:08:47;;;;;;;;;;;;;;;20.27;43.95;101485.39;105312;1297;62043;-83
2022/05/08 12:11:53;;;;;;;;;;;;;;;20.27;44.00;101480.20;105372;1297;73800;-81
2022/05/08 12:14:21;;;;;;;;;;;;;;;20.27;43.68;101480.54;105142;1299;75960;-82
2022/05/08 12:17:03;;;;;;;;;;;;;;;20.28;43.83;101480.51;105131;1297;62215;-82
2022/05/08 12:19:29;;;;;;;;;;;;;;;20.29;43.91;101475.13;105220;1297;62440;-83
2022/05/08 12:21:57;;;;;;;;;;;;;;;20.29;43.90;101471.33;105233;1299;72921;-84
2022/05/08 12:24:43;;;;;;;;;;;;;;;20.30;43.86;101469.50;105236;1299;76528;-82
2022/05/08 12:27:17;;;;;;;;;;;;;;;20.30;43.95;101468.06;105343;1298;62191;-82
2022/05/08 12:29:46;;;;;;;;;;;;;;;20.31;43.89;101470.52;105280;1297;62185;-82
2022/05/08 12:32:21;;;;;;;;;;;;;;;20.31;43.78;101464.79;105188;1297;72852;-82
2022/05/08 12:34:57;;;;;;;;;;;;;;;20.31;43.83;101460.66;105198;1299;75604;-85
2022/05/08 12:37:41;;;;;;;;;;;;;;;20.32;43.77;101456.35;105345;1299;61935;-81
2022/05/08 12:40:23;;;;;;;;;;;;;;;20.32;43.70;101452.04;105356;1297;62112;-82
2022/05/08 12:42:52;;;;;;;;;;;;;;;20.33;43.95;101456.61;105224;1298;73804;-83
2022/05/08 12:45:20;;;;;;;;;;;;;;;20.33;43.68;101453.91;105239;1299;76719;-82
2022/05/08 12:47:55;;;;;;;;;;;;;;;20.34;43.71;101451.95;105278;1299;62081;-86
2022/05/08 12:50:34;;;;;;;;;;;;;;;20.33;44.03;101451.41;105295;1299;61970;-85
2022/05/08 12:53:13;;;;;;;;;;;;;;;20.34;43.65;101450.83;105417;1298;74012;-83
2022/05/08 12:55:48;;;;;;;;;;;;;;;20.35;43.69;101439.21;105320;1299;76537;-80
2022/05/08 13:01:26;;;;;;;;;;;;;;;20.35;43.58;101432.58;105320;1299;62059;-84
2022/05/08 13:04:10;;;;;;;;;;;;;;;;;;;;;
2022/05/08 13:06:52;;;;;;;;;;;;;;;20.36;43.77;101426.41;105383;1299;75565;-82
2022/05/08 13:09:41;;;;;;;;;;;;;;;20.37;43.66;101420.65;105394;1299;62082;-84
2022/05/08 13:12:27;;;;;;;;;;;;;;;20.36;43.77;101418.52;105411;1299;61927;-82
2022/05/08 13:15:06;;;;;;;;;;;;;;;20.38;43.74;101412.52;104819;1305;71976;-84
2022/05/08 13:17:45;;;;;;;;;;;;;;;20.38;43.67;101404.84;104557;1305;76641;-84
2022/05/08 13:20:33;;;;;;;;;;;;;;;;;;;;;
2022/05/08 13:23:19;;;;;;;;;;;;;;;20.38;43.65;101408.74;104793;1305;62156;-85
2022/05/08 13:25:50;;;;;;;;;;;;;;;20.39;43.69;101406.56;104823;1305;72972;-83
2022/05/08 13:28:43;;;;;;;;;;;;;;;20.40;43.45;101402.04;104785;1305;76233;-80
2022/05/08 13:31:29;;;;;;;;;;;;;;;20.40;43.58;101394.70;104772;1305;62170;-83
2022/05/08 13:34:08;;;;;;;;;;;;;;;20.41;43.59;101396.98;104831;1305;62015;-83
2022/05/08 13:36:48;;;;;;;;;;;;;;;20.41;43.58;101395.21;104802;1305;73948;-84
2022/05/08 13:39:31;;;;;;;;;;;;;;;20.41;43.83;101390.89;104800;1305;75676;-85
2022/05/08 13:42:15;;;;;;;;;;;;;;;20.42;43.51;101390.84;104842;1305;62194;-86
2022/05/08 13:44:56;;;;;;;;;;;;;;;20.42;43.40;101387.79;104824;1305;62610;-85
2022/05/08 13:47:28;;;;;;;;;;;;;;;20.42;43.46;101386.17;105266;1299;73015;-84
2022/05/08 13:50:38;;;;;;;;;;;;;;;20.43;43.62;101384.89;104676;1307;74299;-85
2022/05/08 13:53:10;;;;;;;;;;;;;;;20.43;43.51;101382.90;104438;1308;62207;-83
2022/05/08 13:55:55;;;;;;;;;;;;;;;20.43;43.56;101385.95;104595;1307;62431;-84
2022/05/08 13:58:44;;;;;;;;;;;;;;;;;;;;;
2022/05/08 14:01:21;;;;;;;;;;;;;;;20.44;43.46;101383.91;104696;1306;75620;-84
2022/05/08 14:04:05;;;;;;;;;;;;;;;20.45;43.65;101381.74;104593;1306;62042;-83
2022/05/08 14:06:50;;;;;;;;;;;;;;;20.46;43.48;101379.20;104654;1308;61975;-83
2022/05/08 14:09:39;;;;;;;;;;;;;;;20.46;43.60;101380.23;104532;1308;73231;-85
2022/05/08 14:12:28;;;;;;;;;;;;;;;20.47;43.65;101378.24;104763;1304;75843;-82
2022/05/08 14:15:13;;;;;;;;;;;;;;;20.48;43.56;101377.47;104772;1305;63194;-82
2022/05/08 14:17:48;;;;;;;;;;;;;;;20.48;43.66;101377.98;104771;1305;62443;-82
2022/05/08 14:20:29;;;;;;;;;;;;;;;20.48;43.48;101379.56;104662;1305;72870;-84
2022/05/08 14:23:15;;;;;;;;;;;;;;;20.49;43.63;101376.49;104773;1305;75818;-84
2022/05/08 14:25:47;;;;;;;;;;;;;;;20.50;43.59;101377.52;104651;1308;60801;-82
2022/05/08 14:28:40;;;;;;;;;;;;;;;20.50;43.49;101377.30;105069;1299;62271;-82
2022/05/08 14:37:04;;;;;;;;;;;;;;;20.52;43.43;101374.86;105321;1296;62058;-83
2022/05/08 14:39:42;;;;;;;;;;;;;;;20.53;43.41;101373.19;105201;1299;62151;-82
2022/05/08 14:42:14;;;;;;;;;;;;;;;20.54;43.55;101377.27;105440;1297;73889;-82
2022/05/08 14:44:40;;;;;;;;;;;;;;;20.54;43.39;101376.70;105265;1299;74709;-84
2022/05/08 14:47:18;;;;;;;;;;;;;;;20.55;43.28;101379.17;105222;1299;62061;-83
2022/05/08 14:49:57;;;;;;;;;;;;;;;20.56;43.46;101375.92;105264;1298;62095;-82
2022/05/08 14:52:22;;;;;;;;;;;;;;;20.56;43.25;101373.05;105311;1299;72906;-81